sensor_id;sensor_type;location;lat;lon;timestamp;P1;durP1;ratioP1;P2;durP2;ratioP2
1308;SDS011;647;48.840;9.314;2022-11-15T00:01:07;65.73;;;9.17;;
1308;SDS011;647;48.840;9.314;2022-11-15T00:03:34;65.10;;;9.20;;
1308;SDS011;647;48.840;9.314;2022-11-15T00:06:01;63.20;;;8.80;;
1308;SDS011;647;48.840;9.314;2022-11-15T00:08:30;64.70;;;9.10;;
1308;SDS011;647;48.840;9.314;2022-11-15T00:10:59;65.23;;;8.40;;
1308;SDS011;647;48.840;9.314;2022-11-15T00:13:27;64.40;;;9.53;;
1308;SDS011;647;48.840;9.314;2022-11-15T00:15:56;67.20;;;9.80;;
1308;SDS011;647;48.840;9.314;2022-11-15T00:18:24;69.53;;;9.30;;
1308;SDS011;647;48.840;9.314;2022-11-15T00:20:50;79.27;;;13.90;;
1308;SDS011;647;48.840;9.314;2022-11-15T00:23:17;81.83;;;15.90;;
1308;SDS011;647;48.840;9.314;2022-11-15T00:25:45;73.13;;;11.70;;
1308;SDS011;647;48.840;9.314;2022-11-15T00:28:12;69.20;;;9.17;;
1308;SDS011;647;48.840;9.314;2022-11-15T00:30:39;66.80;;;8.87;;
1308;SDS011;647;48.840;9.314;2022-11-15T00:33:06;65.50;;;9.00;;
1308;SDS011;647;48.840;9.314;2022-11-15T00:35:33;70.60;;;11.10;;
1308;SDS011;647;48.840;9.314;2022-11-15T00:38:01;65.90;;;9.80;;
1308;SDS011;647;48.840;9.314;2022-11-15T00:40:28;65.07;;;9.37;;
1308;SDS011;647;48.840;9.314;2022-11-15T00:42:56;63.97;;;9.07;;
1308;SDS011;647;48.840;9.314;2022-11-15T00:45:23;65.27;;;9.97;;
1308;SDS011;647;48.840;9.314;2022-11-15T00:47:51;67.43;;;10.93;;
1308;SDS011;647;48.840;9.314;2022-11-15T00:50:18;65.67;;;9.93;;
1308;SDS011;647;48.840;9.314;2022-11-15T00:52:45;65.07;;;8.67;;
1308;SDS011;647;48.840;9.314;2022-11-15T00:55:13;64.23;;;8.67;;
1308;SDS011;647;48.840;9.314;2022-11-15T00:57:41;63.50;;;8.70;;
1308;SDS011;647;48.840;9.314;2022-11-15T01:00:10;65.97;;;8.70;;
1308;SDS011;647;48.840;9.314;2022-11-15T01:02:37;64.60;;;8.63;;
1308;SDS011;647;48.840;9.314;2022-11-15T01:05:04;64.17;;;8.27;;
1308;SDS011;647;48.840;9.314;2022-11-15T01:07:31;64.00;;;8.67;;
1308;SDS011;647;48.840;9.314;2022-11-15T01:09:58;63.67;;;8.63;;
1308;SDS011;647;48.840;9.314;2022-11-15T01:12:25;63.17;;;8.10;;
1308;SDS011;647;48.840;9.314;2022-11-15T01:14:52;62.10;;;7.50;;
1308;SDS011;647;48.840;9.314;2022-11-15T01:17:20;64.27;;;8.10;;
1308;SDS011;647;48.840;9.314;2022-11-15T01:19:47;66.27;;;8.97;;
1308;SDS011;647;48.840;9.314;2022-11-15T01:22:14;64.20;;;7.53;;
1308;SDS011;647;48.840;9.314;2022-11-15T01:24:41;64.07;;;8.60;;
1308;SDS011;647;48.840;9.314;2022-11-15T01:27:08;65.60;;;8.20;;
1308;SDS011;647;48.840;9.314;2022-11-15T01:29:35;63.70;;;8.37;;
1308;SDS011;647;48.840;9.314;2022-11-15T01:32:02;66.30;;;8.63;;
1308;SDS011;647;48.840;9.314;2022-11-15T01:34:30;65.60;;;8.50;;
1308;SDS011;647;48.840;9.314;2022-11-15T01:36:57;64.27;;;8.00;;
1308;SDS011;647;48.840;9.314;2022-11-15T01:39:24;64.20;;;8.70;;
1308;SDS011;647;48.840;9.314;2022-11-15T01:41:51;64.03;;;8.50;;
1308;SDS011;647;48.840;9.314;2022-11-15T01:44:38;64.27;;;8.10;;
1308;SDS011;647;48.840;9.314;2022-11-15T01:47:08;65.10;;;8.63;;
1308;SDS011;647;48.840;9.314;2022-11-15T01:49:40;64.87;;;8.33;;
1308;SDS011;647;48.840;9.314;2022-11-15T01:52:12;66.87;;;9.20;;
1308;SDS011;647;48.840;9.314;2022-11-15T01:54:41;64.40;;;8.70;;
1308;SDS011;647;48.840;9.314;2022-11-15T01:57:09;63.80;;;9.00;;
1308;SDS011;647;48.840;9.314;2022-11-15T01:59:37;64.63;;;9.50;;
1308;SDS011;647;48.840;9.314;2022-11-15T02:02:08;62.50;;;8.70;;
1308;SDS011;647;48.840;9.314;2022-11-15T02:04:35;66.70;;;9.13;;
1308;SDS011;647;48.840;9.314;2022-11-15T02:07:06;66.37;;;8.50;;
1308;SDS011;647;48.840;9.314;2022-11-15T02:09:36;65.50;;;9.47;;
1308;SDS011;647;48.840;9.314;2022-11-15T02:12:04;68.90;;;9.63;;
1308;SDS011;647;48.840;9.314;2022-11-15T02:14:33;64.77;;;9.07;;
1308;SDS011;647;48.840;9.314;2022-11-15T02:17:05;63.07;;;8.33;;
1308;SDS011;647;48.840;9.314;2022-11-15T02:19:52;64.07;;;9.00;;
1308;SDS011;647;48.840;9.314;2022-11-15T02:22:45;65.10;;;8.30;;
1308;SDS011;647;48.840;9.314;2022-11-15T02:25:30;66.33;;;8.80;;
1308;SDS011;647;48.840;9.314;2022-11-15T02:31:10;64.07;;;9.30;;
1308;SDS011;647;48.840;9.314;2022-11-15T02:33:45;64.53;;;9.70;;
1308;SDS011;647;48.840;9.314;2022-11-15T02:36:22;65.13;;;9.37;;
1308;SDS011;647;48.840;9.314;2022-11-15T02:38:58;65.93;;;10.00;;
1308;SDS011;647;48.840;9.314;2022-11-15T02:41:30;63.67;;;9.00;;
1308;SDS011;647;48.840;9.314;2022-11-15T02:44:02;63.93;;;9.60;;
1308;SDS011;647;48.840;9.314;2022-11-15T02:46:34;66.10;;;9.37;;
1308;SDS011;647;48.840;9.314;2022-11-15T02:49:22;65.17;;;9.00;;
1308;SDS011;647;48.840;9.314;2022-11-15T02:51:51;64.87;;;9.57;;
1308;SDS011;647;48.840;9.314;2022-11-15T02:54:21;64.17;;;9.20;;
1308;SDS011;647;48.840;9.314;2022-11-15T02:56:50;62.93;;;8.37;;
1308;SDS011;647;48.840;9.314;2022-11-15T03:02:41;63.40;;;8.80;;
1308;SDS011;647;48.840;9.314;2022-11-15T03:05:23;66.00;;;9.70;;
1308;SDS011;647;48.840;9.314;2022-11-15T03:07:58;66.23;;;8.97;;
1308;SDS011;647;48.840;9.314;2022-11-15T03:10:32;65.93;;;9.20;;
1308;SDS011;647;48.840;9.314;2022-11-15T03:13:10;64.67;;;8.70;;
1308;SDS011;647;48.840;9.314;2022-11-15T03:15:46;65.90;;;9.80;;
1308;SDS011;647;48.840;9.314;2022-11-15T03:18:21;66.10;;;9.60;;
1308;SDS011;647;48.840;9.314;2022-11-15T03:20:54;68.00;;;9.13;;
1308;SDS011;647;48.840;9.314;2022-11-15T03:23:21;65.30;;;9.20;;
1308;SDS011;647;48.840;9.314;2022-11-15T03:25:48;68.20;;;9.43;;
1308;SDS011;647;48.840;9.314;2022-11-15T03:28:19;69.23;;;9.43;;
1308;SDS011;647;48.840;9.314;2022-11-15T03:30:49;66.80;;;8.70;;
1308;SDS011;647;48.840;9.314;2022-11-15T03:33:18;64.47;;;8.97;;
1308;SDS011;647;48.840;9.314;2022-11-15T03:35:47;66.53;;;9.37;;
1308;SDS011;647;48.840;9.314;2022-11-15T03:38:15;64.87;;;9.53;;
1308;SDS011;647;48.840;9.314;2022-11-15T03:40:49;71.27;;;9.30;;
1308;SDS011;647;48.840;9.314;2022-11-15T03:43:27;63.27;;;8.20;;
1308;SDS011;647;48.840;9.314;2022-11-15T03:46:00;63.10;;;8.60;;
1308;SDS011;647;48.840;9.314;2022-11-15T03:48:33;64.07;;;7.80;;
1308;SDS011;647;48.840;9.314;2022-11-15T03:51:03;63.73;;;8.57;;
1308;SDS011;647;48.840;9.314;2022-11-15T03:53:31;63.40;;;8.73;;
1308;SDS011;647;48.840;9.314;2022-11-15T03:55:57;67.30;;;9.47;;
1308;SDS011;647;48.840;9.314;2022-11-15T03:58:24;67.23;;;9.40;;
1308;SDS011;647;48.840;9.314;2022-11-15T04:00:51;64.13;;;9.10;;
1308;SDS011;647;48.840;9.314;2022-11-15T04:03:18;70.53;;;9.77;;
1308;SDS011;647;48.840;9.314;2022-11-15T04:05:46;67.67;;;9.73;;
1308;SDS011;647;48.840;9.314;2022-11-15T04:08:13;63.40;;;8.93;;
1308;SDS011;647;48.840;9.314;2022-11-15T04:10:40;65.20;;;9.77;;
1308;SDS011;647;48.840;9.314;2022-11-15T04:13:06;64.43;;;9.00;;
1308;SDS011;647;48.840;9.314;2022-11-15T04:15:33;67.40;;;9.90;;
1308;SDS011;647;48.840;9.314;2022-11-15T04:18:00;65.20;;;9.70;;
1308;SDS011;647;48.840;9.314;2022-11-15T04:20:28;65.70;;;9.97;;
1308;SDS011;647;48.840;9.314;2022-11-15T04:23:15;65.13;;;9.30;;
1308;SDS011;647;48.840;9.314;2022-11-15T04:26:01;68.00;;;9.83;;
1308;SDS011;647;48.840;9.314;2022-11-15T04:28:30;64.43;;;8.87;;
1308;SDS011;647;48.840;9.314;2022-11-15T04:30:57;65.63;;;9.03;;
1308;SDS011;647;48.840;9.314;2022-11-15T04:33:23;64.20;;;8.47;;
1308;SDS011;647;48.840;9.314;2022-11-15T04:35:50;64.97;;;8.80;;
1308;SDS011;647;48.840;9.314;2022-11-15T04:38:33;65.60;;;9.60;;
1308;SDS011;647;48.840;9.314;2022-11-15T04:41:00;65.10;;;8.83;;
1308;SDS011;647;48.840;9.314;2022-11-15T04:43:28;66.87;;;8.80;;
1308;SDS011;647;48.840;9.314;2022-11-15T04:45:55;63.17;;;7.87;;
1308;SDS011;647;48.840;9.314;2022-11-15T04:48:22;63.30;;;8.93;;
1308;SDS011;647;48.840;9.314;2022-11-15T04:50:48;64.07;;;8.77;;
1308;SDS011;647;48.840;9.314;2022-11-15T04:53:15;65.90;;;8.80;;
1308;SDS011;647;48.840;9.314;2022-11-15T04:55:45;62.67;;;7.60;;
1308;SDS011;647;48.840;9.314;2022-11-15T04:58:12;63.27;;;7.87;;
1308;SDS011;647;48.840;9.314;2022-11-15T05:00:38;64.63;;;9.07;;
1308;SDS011;647;48.840;9.314;2022-11-15T05:03:05;65.60;;;9.63;;
1308;SDS011;647;48.840;9.314;2022-11-15T05:05:50;66.10;;;8.43;;
1308;SDS011;647;48.840;9.314;2022-11-15T05:08:17;62.80;;;8.03;;
1308;SDS011;647;48.840;9.314;2022-11-15T05:10:45;62.47;;;7.00;;
1308;SDS011;647;48.840;9.314;2022-11-15T05:13:12;69.27;;;8.57;;
1308;SDS011;647;48.840;9.314;2022-11-15T05:15:38;64.00;;;8.07;;
1308;SDS011;647;48.840;9.314;2022-11-15T05:18:05;65.95;;;8.38;;
1308;SDS011;647;48.840;9.314;2022-11-15T05:20:32;64.37;;;8.10;;
1308;SDS011;647;48.840;9.314;2022-11-15T05:22:59;65.10;;;7.90;;
1308;SDS011;647;48.840;9.314;2022-11-15T05:25:25;65.10;;;8.00;;
1308;SDS011;647;48.840;9.314;2022-11-15T05:27:54;65.00;;;7.97;;
1308;SDS011;647;48.840;9.314;2022-11-15T05:30:21;65.53;;;8.67;;
1308;SDS011;647;48.840;9.314;2022-11-15T05:32:48;62.77;;;8.30;;
1308;SDS011;647;48.840;9.314;2022-11-15T05:35:30;63.70;;;8.33;;
1308;SDS011;647;48.840;9.314;2022-11-15T05:37:58;63.80;;;9.20;;
1308;SDS011;647;48.840;9.314;2022-11-15T05:40:26;68.40;;;9.03;;
1308;SDS011;647;48.840;9.314;2022-11-15T05:42:55;68.38;;;9.35;;
1308;SDS011;647;48.840;9.314;2022-11-15T05:45:22;65.43;;;8.80;;
1308;SDS011;647;48.840;9.314;2022-11-15T05:47:49;64.90;;;8.93;;
1308;SDS011;647;48.840;9.314;2022-11-15T05:50:17;67.77;;;9.07;;
1308;SDS011;647;48.840;9.314;2022-11-15T05:52:45;67.90;;;9.17;;
1308;SDS011;647;48.840;9.314;2022-11-15T05:55:13;65.57;;;8.90;;
1308;SDS011;647;48.840;9.314;2022-11-15T05:57:40;64.97;;;9.27;;
1308;SDS011;647;48.840;9.314;2022-11-15T06:00:09;64.50;;;8.70;;
1308;SDS011;647;48.840;9.314;2022-11-15T06:02:37;64.93;;;9.47;;
1308;SDS011;647;48.840;9.314;2022-11-15T06:05:04;64.17;;;8.50;;
1308;SDS011;647;48.840;9.314;2022-11-15T06:07:31;68.97;;;10.57;;
1308;SDS011;647;48.840;9.314;2022-11-15T06:09:58;65.30;;;10.10;;
1308;SDS011;647;48.840;9.314;2022-11-15T06:12:24;68.00;;;8.70;;
1308;SDS011;647;48.840;9.314;2022-11-15T06:14:51;65.13;;;9.20;;
1308;SDS011;647;48.840;9.314;2022-11-15T06:17:19;69.90;;;10.17;;
1308;SDS011;647;48.840;9.314;2022-11-15T06:19:46;66.10;;;10.30;;
1308;SDS011;647;48.840;9.314;2022-11-15T06:22:13;64.30;;;8.50;;
1308;SDS011;647;48.840;9.314;2022-11-15T06:24:39;67.30;;;8.53;;
1308;SDS011;647;48.840;9.314;2022-11-15T06:27:06;64.33;;;8.47;;
1308;SDS011;647;48.840;9.314;2022-11-15T06:29:33;64.40;;;9.43;;
1308;SDS011;647;48.840;9.314;2022-11-15T06:32:00;64.27;;;8.60;;
1308;SDS011;647;48.840;9.314;2022-11-15T06:34:28;65.47;;;8.83;;
1308;SDS011;647;48.840;9.314;2022-11-15T06:36:55;63.80;;;8.43;;
1308;SDS011;647;48.840;9.314;2022-11-15T06:39:21;63.93;;;8.20;;
1308;SDS011;647;48.840;9.314;2022-11-15T06:41:48;70.03;;;8.83;;
1308;SDS011;647;48.840;9.314;2022-11-15T06:44:15;66.20;;;10.30;;
1308;SDS011;647;48.840;9.314;2022-11-15T06:46:42;67.70;;;9.87;;
1308;SDS011;647;48.840;9.314;2022-11-15T06:49:09;65.37;;;9.80;;
1308;SDS011;647;48.840;9.314;2022-11-15T06:51:37;66.70;;;9.80;;
1308;SDS011;647;48.840;9.314;2022-11-15T06:54:04;67.20;;;9.90;;
1308;SDS011;647;48.840;9.314;2022-11-15T06:56:31;67.43;;;9.97;;
1308;SDS011;647;48.840;9.314;2022-11-15T06:58:59;68.00;;;10.80;;
1308;SDS011;647;48.840;9.314;2022-11-15T07:01:26;69.10;;;12.40;;
1308;SDS011;647;48.840;9.314;2022-11-15T07:03:53;66.50;;;10.17;;
1308;SDS011;647;48.840;9.314;2022-11-15T07:06:19;65.50;;;10.47;;
1308;SDS011;647;48.840;9.314;2022-11-15T07:08:48;64.00;;;9.63;;
1308;SDS011;647;48.840;9.314;2022-11-15T07:11:15;65.57;;;10.10;;
1308;SDS011;647;48.840;9.314;2022-11-15T07:13:42;65.70;;;9.60;;
1308;SDS011;647;48.840;9.314;2022-11-15T07:16:09;68.10;;;10.50;;
1308;SDS011;647;48.840;9.314;2022-11-15T07:18:36;67.50;;;9.40;;
1308;SDS011;647;48.840;9.314;2022-11-15T07:21:05;64.37;;;9.27;;
1308;SDS011;647;48.840;9.314;2022-11-15T07:23:35;64.60;;;8.73;;
1308;SDS011;647;48.840;9.314;2022-11-15T07:26:04;66.70;;;9.20;;
1308;SDS011;647;48.840;9.314;2022-11-15T07:28:31;66.47;;;9.27;;
1308;SDS011;647;48.840;9.314;2022-11-15T07:31:01;67.03;;;8.70;;
1308;SDS011;647;48.840;9.314;2022-11-15T07:33:28;66.00;;;8.77;;
1308;SDS011;647;48.840;9.314;2022-11-15T07:35:58;65.90;;;8.53;;
1308;SDS011;647;48.840;9.314;2022-11-15T07:38:26;67.00;;;8.70;;
1308;SDS011;647;48.840;9.314;2022-11-15T07:40:55;65.70;;;8.20;;
1308;SDS011;647;48.840;9.314;2022-11-15T07:43:24;63.30;;;7.57;;
1308;SDS011;647;48.840;9.314;2022-11-15T07:45:52;65.50;;;8.17;;
1308;SDS011;647;48.840;9.314;2022-11-15T07:48:19;64.10;;;7.83;;
1308;SDS011;647;48.840;9.314;2022-11-15T07:50:46;65.83;;;8.60;;
1308;SDS011;647;48.840;9.314;2022-11-15T07:53:13;65.90;;;8.00;;
1308;SDS011;647;48.840;9.314;2022-11-15T07:55:40;64.80;;;8.93;;
1308;SDS011;647;48.840;9.314;2022-11-15T07:58:08;64.27;;;8.47;;
1308;SDS011;647;48.840;9.314;2022-11-15T08:00:38;65.43;;;9.00;;
1308;SDS011;647;48.840;9.314;2022-11-15T08:03:06;65.77;;;8.63;;
1308;SDS011;647;48.840;9.314;2022-11-15T08:05:34;66.97;;;8.20;;
1308;SDS011;647;48.840;9.314;2022-11-15T08:08:01;64.40;;;8.33;;
1308;SDS011;647;48.840;9.314;2022-11-15T08:10:29;63.90;;;7.40;;
1308;SDS011;647;48.840;9.314;2022-11-15T08:12:56;63.10;;;7.17;;
1308;SDS011;647;48.840;9.314;2022-11-15T08:15:24;63.07;;;7.10;;
1308;SDS011;647;48.840;9.314;2022-11-15T08:17:54;64.20;;;7.23;;
1308;SDS011;647;48.840;9.314;2022-11-15T08:20:21;64.47;;;8.03;;
1308;SDS011;647;48.840;9.314;2022-11-15T08:22:48;65.80;;;7.77;;
1308;SDS011;647;48.840;9.314;2022-11-15T08:25:15;63.67;;;7.73;;
1308;SDS011;647;48.840;9.314;2022-11-15T08:27:42;63.40;;;7.23;;
1308;SDS011;647;48.840;9.314;2022-11-15T08:30:10;65.90;;;8.30;;
1308;SDS011;647;48.840;9.314;2022-11-15T08:32:37;64.07;;;7.60;;
1308;SDS011;647;48.840;9.314;2022-11-15T08:35:06;65.87;;;7.10;;
1308;SDS011;647;48.840;9.314;2022-11-15T08:37:33;63.27;;;7.20;;
1308;SDS011;647;48.840;9.314;2022-11-15T08:40:00;64.10;;;7.00;;
1308;SDS011;647;48.840;9.314;2022-11-15T08:42:27;65.07;;;8.40;;
1308;SDS011;647;48.840;9.314;2022-11-15T08:44:54;64.87;;;6.93;;
1308;SDS011;647;48.840;9.314;2022-11-15T08:47:21;63.30;;;7.20;;
1308;SDS011;647;48.840;9.314;2022-11-15T08:49:49;62.90;;;7.40;;
1308;SDS011;647;48.840;9.314;2022-11-15T08:52:17;61.77;;;7.30;;
1308;SDS011;647;48.840;9.314;2022-11-15T08:54:44;67.67;;;7.63;;
1308;SDS011;647;48.840;9.314;2022-11-15T08:57:11;73.40;;;7.67;;
1308;SDS011;647;48.840;9.314;2022-11-15T08:59:37;70.60;;;7.70;;
1308;SDS011;647;48.840;9.314;2022-11-15T09:02:05;63.37;;;7.10;;
1308;SDS011;647;48.840;9.314;2022-11-15T09:04:32;65.37;;;7.20;;
1308;SDS011;647;48.840;9.314;2022-11-15T09:06:59;63.10;;;7.07;;
1308;SDS011;647;48.840;9.314;2022-11-15T09:09:27;68.50;;;7.57;;
1308;SDS011;647;48.840;9.314;2022-11-15T09:11:53;66.57;;;6.80;;
1308;SDS011;647;48.840;9.314;2022-11-15T09:14:20;66.43;;;7.37;;
1308;SDS011;647;48.840;9.314;2022-11-15T09:16:47;62.70;;;6.50;;
1308;SDS011;647;48.840;9.314;2022-11-15T09:19:14;62.57;;;6.60;;
1308;SDS011;647;48.840;9.314;2022-11-15T09:21:41;63.27;;;6.87;;
1308;SDS011;647;48.840;9.314;2022-11-15T09:24:07;62.37;;;6.90;;
1308;SDS011;647;48.840;9.314;2022-11-15T09:26:36;62.73;;;6.40;;
1308;SDS011;647;48.840;9.314;2022-11-15T09:29:03;62.33;;;5.57;;
1308;SDS011;647;48.840;9.314;2022-11-15T09:31:29;62.00;;;6.13;;
1308;SDS011;647;48.840;9.314;2022-11-15T09:33:56;65.50;;;6.83;;
1308;SDS011;647;48.840;9.314;2022-11-15T09:36:23;62.60;;;6.77;;
1308;SDS011;647;48.840;9.314;2022-11-15T09:38:50;62.57;;;6.57;;
1308;SDS011;647;48.840;9.314;2022-11-15T09:47:21;64.10;;;6.17;;
1308;SDS011;647;48.840;9.314;2022-11-15T09:50:17;62.33;;;6.20;;
1308;SDS011;647;48.840;9.314;2022-11-15T09:52:46;61.67;;;5.80;;
1308;SDS011;647;48.840;9.314;2022-11-15T09:55:13;61.67;;;5.70;;
1308;SDS011;647;48.840;9.314;2022-11-15T09:57:49;61.53;;;6.03;;
1308;SDS011;647;48.840;9.314;2022-11-15T10:00:21;60.80;;;5.23;;
1308;SDS011;647;48.840;9.314;2022-11-15T10:02:57;60.17;;;5.60;;
1308;SDS011;647;48.840;9.314;2022-11-15T10:05:36;70.53;;;6.33;;
1308;SDS011;647;48.840;9.314;2022-11-15T10:08:10;60.77;;;4.90;;
1308;SDS011;647;48.840;9.314;2022-11-15T10:10:51;60.00;;;4.67;;
1308;SDS011;647;48.840;9.314;2022-11-15T10:13:23;60.67;;;5.17;;
1308;SDS011;647;48.840;9.314;2022-11-15T10:15:53;61.07;;;5.00;;
1308;SDS011;647;48.840;9.314;2022-11-15T10:18:21;61.67;;;4.60;;
1308;SDS011;647;48.840;9.314;2022-11-15T10:20:55;60.20;;;5.40;;
1308;SDS011;647;48.840;9.314;2022-11-15T10:23:25;62.73;;;5.27;;
1308;SDS011;647;48.840;9.314;2022-11-15T10:25:54;61.57;;;5.13;;
1308;SDS011;647;48.840;9.314;2022-11-15T10:28:25;62.70;;;5.27;;
1308;SDS011;647;48.840;9.314;2022-11-15T10:30:54;60.40;;;4.83;;
1308;SDS011;647;48.840;9.314;2022-11-15T10:33:26;60.20;;;4.70;;
1308;SDS011;647;48.840;9.314;2022-11-15T10:36:14;60.30;;;4.87;;
1308;SDS011;647;48.840;9.314;2022-11-15T10:38:58;61.60;;;5.60;;
1308;SDS011;647;48.840;9.314;2022-11-15T10:41:29;60.57;;;5.20;;
1308;SDS011;647;48.840;9.314;2022-11-15T10:44:18;60.67;;;5.23;;
1308;SDS011;647;48.840;9.314;2022-11-15T10:46:48;61.00;;;5.30;;
1308;SDS011;647;48.840;9.314;2022-11-15T10:49:34;60.30;;;5.17;;
1308;SDS011;647;48.840;9.314;2022-11-15T10:52:01;61.87;;;5.20;;
1308;SDS011;647;48.840;9.314;2022-11-15T10:54:36;62.37;;;5.73;;
1308;SDS011;647;48.840;9.314;2022-11-15T10:57:07;59.77;;;5.00;;
1308;SDS011;647;48.840;9.314;2022-11-15T10:59:42;60.77;;;5.17;;
1308;SDS011;647;48.840;9.314;2022-11-15T11:02:23;62.20;;;5.70;;
1308;SDS011;647;48.840;9.314;2022-11-15T11:04:54;61.37;;;5.20;;
1308;SDS011;647;48.840;9.314;2022-11-15T11:07:22;60.27;;;5.10;;
1308;SDS011;647;48.840;9.314;2022-11-15T11:09:56;62.00;;;4.93;;
1308;SDS011;647;48.840;9.314;2022-11-15T11:12:27;64.00;;;5.57;;
1308;SDS011;647;48.840;9.314;2022-11-15T11:14:56;60.60;;;5.30;;
1308;SDS011;647;48.840;9.314;2022-11-15T11:17:28;61.10;;;5.73;;
1308;SDS011;647;48.840;9.314;2022-11-15T11:20:02;64.50;;;5.97;;
1308;SDS011;647;48.840;9.314;2022-11-15T11:22:34;61.87;;;5.10;;
1308;SDS011;647;48.840;9.314;2022-11-15T11:25:11;61.63;;;5.00;;
1308;SDS011;647;48.840;9.314;2022-11-15T11:27:49;60.20;;;4.80;;
1308;SDS011;647;48.840;9.314;2022-11-15T11:30:38;61.53;;;5.50;;
1308;SDS011;647;48.840;9.314;2022-11-15T11:33:16;60.83;;;5.60;;
1308;SDS011;647;48.840;9.314;2022-11-15T11:35:50;62.50;;;5.20;;
1308;SDS011;647;48.840;9.314;2022-11-15T11:38:31;61.17;;;5.23;;
1308;SDS011;647;48.840;9.314;2022-11-15T11:41:19;62.60;;;5.10;;
1308;SDS011;647;48.840;9.314;2022-11-15T11:43:56;61.40;;;5.40;;
1308;SDS011;647;48.840;9.314;2022-11-15T11:46:40;61.37;;;5.37;;
1308;SDS011;647;48.840;9.314;2022-11-15T11:49:15;62.83;;;5.57;;
1308;SDS011;647;48.840;9.314;2022-11-15T11:51:46;60.07;;;4.60;;
1308;SDS011;647;48.840;9.314;2022-11-15T11:54:18;61.83;;;6.03;;
1308;SDS011;647;48.840;9.314;2022-11-15T11:56:49;60.80;;;5.43;;
1308;SDS011;647;48.840;9.314;2022-11-15T11:59:19;61.30;;;5.03;;
1308;SDS011;647;48.840;9.314;2022-11-15T12:01:53;68.03;;;5.50;;
1308;SDS011;647;48.840;9.314;2022-11-15T12:04:21;72.40;;;5.73;;
1308;SDS011;647;48.840;9.314;2022-11-15T12:06:56;66.83;;;5.10;;
1308;SDS011;647;48.840;9.314;2022-11-15T12:09:27;67.57;;;6.10;;
1308;SDS011;647;48.840;9.314;2022-11-15T12:12:00;62.00;;;4.70;;
1308;SDS011;647;48.840;9.314;2022-11-15T12:14:33;61.30;;;4.40;;
1308;SDS011;647;48.840;9.314;2022-11-15T12:17:07;61.50;;;4.90;;
1308;SDS011;647;48.840;9.314;2022-11-15T12:19:36;59.57;;;3.80;;
1308;SDS011;647;48.840;9.314;2022-11-15T12:22:04;62.50;;;4.90;;
1308;SDS011;647;48.840;9.314;2022-11-15T12:24:37;66.53;;;4.43;;
1308;SDS011;647;48.840;9.314;2022-11-15T12:27:19;60.07;;;4.27;;
1308;SDS011;647;48.840;9.314;2022-11-15T12:30:00;60.77;;;4.40;;
1308;SDS011;647;48.840;9.314;2022-11-15T12:32:32;59.70;;;4.03;;
1308;SDS011;647;48.840;9.314;2022-11-15T12:35:02;59.13;;;3.70;;
1308;SDS011;647;48.840;9.314;2022-11-15T12:40:29;60.40;;;3.90;;
1308;SDS011;647;48.840;9.314;2022-11-15T12:43:01;61.40;;;4.37;;
1308;SDS011;647;48.840;9.314;2022-11-15T12:45:30;63.00;;;4.30;;
1308;SDS011;647;48.840;9.314;2022-11-15T12:51:07;62.23;;;5.00;;
1308;SDS011;647;48.840;9.314;2022-11-15T12:53:34;59.83;;;4.10;;
1308;SDS011;647;48.840;9.314;2022-11-15T12:58:53;61.47;;;4.53;;
1308;SDS011;647;48.840;9.314;2022-11-15T13:04:24;60.43;;;4.73;;
1308;SDS011;647;48.840;9.314;2022-11-15T13:06:54;64.07;;;5.27;;
1308;SDS011;647;48.840;9.314;2022-11-15T13:12:49;62.60;;;5.10;;
1308;SDS011;647;48.840;9.314;2022-11-15T13:15:34;62.00;;;4.70;;
1308;SDS011;647;48.840;9.314;2022-11-15T13:18:31;64.10;;;5.27;;
1308;SDS011;647;48.840;9.314;2022-11-15T13:21:02;60.40;;;4.10;;
1308;SDS011;647;48.840;9.314;2022-11-15T13:24:02;60.80;;;4.00;;
1308;SDS011;647;48.840;9.314;2022-11-15T13:26:30;64.00;;;4.30;;
1308;SDS011;647;48.840;9.314;2022-11-15T13:28:57;62.60;;;3.90;;
1308;SDS011;647;48.840;9.314;2022-11-15T13:31:27;62.70;;;4.50;;
1308;SDS011;647;48.840;9.314;2022-11-15T13:33:58;59.70;;;4.30;;
1308;SDS011;647;48.840;9.314;2022-11-15T13:36:27;62.50;;;4.33;;
1308;SDS011;647;48.840;9.314;2022-11-15T13:38:58;61.73;;;4.10;;
1308;SDS011;647;48.840;9.314;2022-11-15T13:41:28;60.40;;;3.80;;
1308;SDS011;647;48.840;9.314;2022-11-15T13:43:57;61.73;;;4.13;;
1308;SDS011;647;48.840;9.314;2022-11-15T13:46:25;61.40;;;4.40;;
1308;SDS011;647;48.840;9.314;2022-11-15T13:48:55;62.17;;;4.90;;
1308;SDS011;647;48.840;9.314;2022-11-15T13:51:31;64.10;;;4.83;;
1308;SDS011;647;48.840;9.314;2022-11-15T13:54:01;61.27;;;3.90;;
1308;SDS011;647;48.840;9.314;2022-11-15T13:56:36;61.07;;;4.70;;
1308;SDS011;647;48.840;9.314;2022-11-15T13:59:08;59.77;;;3.93;;
1308;SDS011;647;48.840;9.314;2022-11-15T14:01:35;60.77;;;4.97;;
1308;SDS011;647;48.840;9.314;2022-11-15T14:04:03;61.17;;;5.00;;
1308;SDS011;647;48.840;9.314;2022-11-15T14:06:30;62.03;;;4.50;;
1308;SDS011;647;48.840;9.314;2022-11-15T14:09:03;61.27;;;4.30;;
1308;SDS011;647;48.840;9.314;2022-11-15T14:11:50;69.13;;;5.40;;
1308;SDS011;647;48.840;9.314;2022-11-15T14:14:19;62.80;;;5.80;;
1308;SDS011;647;48.840;9.314;2022-11-15T14:16:47;63.03;;;5.90;;
1308;SDS011;647;48.840;9.314;2022-11-15T14:22:11;63.43;;;5.13;;
1308;SDS011;647;48.840;9.314;2022-11-15T14:25:04;61.37;;;5.27;;
1308;SDS011;647;48.840;9.314;2022-11-15T14:27:44;62.90;;;5.00;;
1308;SDS011;647;48.840;9.314;2022-11-15T14:30:31;65.07;;;5.77;;
1308;SDS011;647;48.840;9.314;2022-11-15T14:32:58;64.90;;;5.73;;
1308;SDS011;647;48.840;9.314;2022-11-15T14:35:25;64.03;;;5.70;;
1308;SDS011;647;48.840;9.314;2022-11-15T14:37:51;61.17;;;5.30;;
1308;SDS011;647;48.840;9.314;2022-11-15T14:40:19;59.97;;;4.87;;
1308;SDS011;647;48.840;9.314;2022-11-15T14:42:49;59.47;;;4.27;;
1308;SDS011;647;48.840;9.314;2022-11-15T14:45:17;65.70;;;6.20;;
1308;SDS011;647;48.840;9.314;2022-11-15T14:47:44;62.60;;;5.20;;
1308;SDS011;647;48.840;9.314;2022-11-15T14:50:12;62.10;;;5.77;;
1308;SDS011;647;48.840;9.314;2022-11-15T14:52:39;60.90;;;5.03;;
1308;SDS011;647;48.840;9.314;2022-11-15T14:55:12;61.27;;;4.97;;
1308;SDS011;647;48.840;9.314;2022-11-15T14:57:43;61.87;;;4.67;;
1308;SDS011;647;48.840;9.314;2022-11-15T15:00:12;68.07;;;9.43;;
1308;SDS011;647;48.840;9.314;2022-11-15T15:02:40;62.50;;;5.73;;
1308;SDS011;647;48.840;9.314;2022-11-15T15:05:15;61.80;;;5.93;;
1308;SDS011;647;48.840;9.314;2022-11-15T15:07:43;62.93;;;8.10;;
1308;SDS011;647;48.840;9.314;2022-11-15T15:10:10;64.73;;;8.37;;
1308;SDS011;647;48.840;9.314;2022-11-15T15:12:38;72.00;;;11.70;;
1308;SDS011;647;48.840;9.314;2022-11-15T15:15:06;70.07;;;9.80;;
1308;SDS011;647;48.840;9.314;2022-11-15T15:17:39;74.00;;;11.47;;
1308;SDS011;647;48.840;9.314;2022-11-15T15:20:06;78.60;;;13.13;;
1308;SDS011;647;48.840;9.314;2022-11-15T15:22:34;83.57;;;13.57;;
1308;SDS011;647;48.840;9.314;2022-11-15T15:25:01;91.00;;;12.30;;
1308;SDS011;647;48.840;9.314;2022-11-15T15:27:29;83.30;;;10.97;;
1308;SDS011;647;48.840;9.314;2022-11-15T15:29:55;82.00;;;11.10;;
1308;SDS011;647;48.840;9.314;2022-11-15T15:32:22;85.33;;;11.33;;
1308;SDS011;647;48.840;9.314;2022-11-15T15:34:50;71.60;;;9.20;;
1308;SDS011;647;48.840;9.314;2022-11-15T15:37:21;65.17;;;8.13;;
1308;SDS011;647;48.840;9.314;2022-11-15T15:39:49;68.90;;;9.20;;
1308;SDS011;647;48.840;9.314;2022-11-15T15:42:17;68.03;;;8.67;;
1308;SDS011;647;48.840;9.314;2022-11-15T15:44:45;71.70;;;11.20;;
1308;SDS011;647;48.840;9.314;2022-11-15T15:47:12;67.80;;;8.57;;
1308;SDS011;647;48.840;9.314;2022-11-15T15:49:39;70.60;;;10.07;;
1308;SDS011;647;48.840;9.314;2022-11-15T15:52:08;66.67;;;10.10;;
1308;SDS011;647;48.840;9.314;2022-11-15T15:54:34;66.67;;;9.20;;
1308;SDS011;647;48.840;9.314;2022-11-15T15:57:01;71.73;;;12.27;;
1308;SDS011;647;48.840;9.314;2022-11-15T15:59:28;68.13;;;11.10;;
1308;SDS011;647;48.840;9.314;2022-11-15T16:01:55;72.00;;;10.73;;
1308;SDS011;647;48.840;9.314;2022-11-15T16:04:22;72.00;;;11.00;;